Time;durP1;ratioP1;P1;durP2;ratioP2;P2;SDS_P1;SDS_P2;PMS_P1;PMS_P2;Temp;Humidity;BMP_temperature;BMP_pressure;BME280_temperature;BME280_humidity;BME280_pressure;Samples;Min_cycle;Max_cycle;Signal;HPM_P1;HPM_P2
2020/12/04 00:01:36;;;;;;;21.97;17.27;;;1.60;99.90;;;2.24;73.46;95654.34;5247366;28;20224;-75
2020/12/04 00:04:08;;;;;;;21.93;18.00;;;1.60;99.90;;;2.26;73.45;95649.38;5246582;28;20216;-76
2020/12/04 00:06:40;;;;;;;21.73;17.63;;;1.70;99.90;;;2.25;73.21;95653.53;5240798;28;20227;-76
2020/12/04 00:09:13;;;;;;;20.77;16.47;;;1.60;99.90;;;2.32;74.00;95643.78;5248729;28;20246;-75
2020/12/04 00:11:45;;;;;;;21.70;17.73;;;1.70;99.90;;;2.36;73.43;95648.22;5258228;28;20572;-78
2020/12/04 00:14:18;;;;;;;22.90;18.27;;;1.70;99.90;;;2.36;73.52;95653.25;5251179;28;20306;-76
2020/12/04 00:16:50;;;;;;;19.97;16.53;;;1.70;99.90;;;2.39;73.12;95650.91;5245883;28;20202;-76
2020/12/04 00:19:22;;;;;;;23.30;17.83;;;1.70;99.90;;;2.40;73.54;95642.53;5243579;28;20203;-77
2020/12/04 00:21:54;;;;;;;22.47;18.73;;;1.70;99.90;;;2.39;73.16;95644.19;5244382;28;20233;-77
2020/12/04 00:24:28;;;;;;;23.13;17.87;;;1.70;99.90;;;2.46;72.52;95635.28;5249318;28;20675;-75
2020/12/04 00:27:00;;;;;;;22.93;17.20;;;1.80;99.90;;;2.57;71.21;95631.66;5250733;28;20206;-77
2020/12/04 00:29:33;;;;;;;21.80;18.40;;;1.80;99.90;;;2.54;72.52;95648.28;5247884;28;20674;-77
2020/12/04 00:32:06;;;;;;;20.60;17.10;;;1.80;99.90;;;2.54;73.20;95646.63;5237818;28;20206;-75
2020/12/04 00:34:38;;;;;;;20.17;15.83;;;1.80;99.90;;;2.53;73.11;95654.13;5252472;28;20200;-76
2020/12/04 00:37:11;;;;;;;22.40;18.63;;;1.80;99.90;;;2.56;73.76;95640.03;5247500;28;20211;-77
2020/12/04 00:39:43;;;;;;;21.37;18.27;;;1.80;99.90;;;2.57;73.66;95636.69;5248475;28;20327;-75
2020/12/04 00:42:16;;;;;;;21.57;17.43;;;1.80;99.90;;;2.63;74.09;95603.38;5254239;28;20318;-75
2020/12/04 00:44:48;;;;;;;19.00;16.30;;;1.80;99.90;;;2.59;73.25;95564.53;5251374;28;20205;-76
2020/12/04 00:47:20;;;;;;;21.57;17.20;;;1.80;99.90;;;2.38;73.32;95573.56;5242157;28;20585;-75
2020/12/04 00:49:53;;;;;;;21.10;17.67;;;1.70;99.90;;;2.41;72.57;95578.75;5243683;28;20582;-76
2020/12/04 00:52:25;;;;;;;20.07;17.07;;;1.70;99.90;;;2.46;72.99;95573.16;5245246;28;20223;-76
2020/12/04 00:54:57;;;;;;;21.07;17.23;;;1.70;99.90;;;2.54;72.73;95571.00;5244882;28;20213;-76
2020/12/04 00:57:29;;;;;;;23.23;18.47;;;1.70;99.90;;;2.60;72.55;95566.25;5235419;28;20284;-76
2020/12/04 01:00:04;;;;;;;23.40;18.50;;;1.80;99.90;;;2.37;73.80;95564.25;5238259;28;20216;-76
2020/12/04 01:02:36;;;;;;;22.37;18.10;;;1.70;99.90;;;2.31;74.06;95561.41;5242689;28;20318;-76
2020/12/04 01:05:08;;;;;;;23.23;17.10;;;1.60;99.90;;;2.29;74.51;95557.94;5244567;28;20205;-76
2020/12/04 01:07:40;;;;;;;23.27;18.57;;;1.60;99.90;;;2.33;72.81;95549.75;5245480;28;20217;-76
2020/12/04 01:10:12;;;;;;;21.80;18.60;;;1.70;99.90;;;2.34;72.49;95548.97;5245991;28;20283;-76
2020/12/04 01:12:46;;;;;;;21.93;17.83;;;1.70;99.90;;;2.34;72.53;95541.41;5236358;28;20209;-76
2020/12/04 01:15:19;;;;;;;23.20;17.07;;;1.70;99.90;;;2.50;72.73;95538.00;5246541;28;20211;-76
2020/12/04 01:17:51;;;;;;;20.00;17.20;;;1.80;99.90;;;2.43;72.29;95536.81;5245820;28;20222;-76
2020/12/04 01:20:23;;;;;;;19.27;16.63;;;1.80;99.90;;;2.39;72.81;95537.47;5245588;28;20203;-75
2020/12/04 01:22:55;;;;;;;21.60;17.50;;;1.80;99.90;;;2.41;73.39;95530.84;5229399;28;20307;-76
2020/12/04 01:25:27;;;;;;;20.50;16.83;;;1.80;99.90;;;2.42;74.05;95527.53;5246457;28;20201;-76
2020/12/04 01:27:59;;;;;;;20.57;16.73;;;1.80;99.90;;;2.44;74.03;95520.94;5237296;28;20199;-76
2020/12/04 01:30:32;;;;;;;20.10;17.00;;;1.80;99.90;;;2.42;75.26;95519.97;5235953;28;20207;-76
2020/12/04 01:33:04;;;;;;;22.33;17.57;;;1.70;99.90;;;2.44;75.11;95518.41;5238465;28;20336;-76
2020/12/04 01:35:36;;;;;;;19.73;16.77;;;1.70;99.90;;;2.38;75.81;95506.38;5234111;28;20697;-76
2020/12/04 01:38:08;;;;;;;19.93;16.43;;;1.70;99.90;;;2.44;75.40;95509.19;5247669;28;20211;-76
2020/12/04 01:40:41;;;;;;;21.50;16.63;;;1.60;99.90;;;2.41;76.16;95506.50;5245841;28;20212;-76
2020/12/04 01:43:13;;;;;;;19.80;15.87;;;1.60;99.90;;;2.32;76.80;95502.66;5243075;28;20707;-76
2020/12/04 01:45:46;;;;;;;22.83;17.77;;;1.50;99.90;;;2.29;77.40;95517.63;5233977;28;20292;-76
2020/12/04 01:48:18;;;;;;;21.37;17.67;;;1.50;99.90;;;2.34;77.01;95511.16;5233456;28;20212;-76
2020/12/04 01:50:52;;;;;;;21.87;18.13;;;1.50;99.90;;;2.16;77.12;95488.44;5245510;28;20200;-76
2020/12/04 01:53:24;;;;;;;22.63;18.20;;;1.40;99.90;;;2.07;77.64;95498.91;5245973;28;20256;-76
2020/12/04 01:55:56;;;;;;;20.53;16.73;;;1.30;99.90;;;2.03;78.28;95480.28;5246701;28;20200;-76
2020/12/04 01:58:29;;;;;;;22.60;17.40;;;1.30;99.90;;;2.06;77.80;95486.22;5240104;28;20210;-76
2020/12/04 02:01:02;;;;;;;21.80;17.93;;;1.30;99.90;;;2.06;77.92;95476.16;5237687;28;20294;-76
2020/12/04 02:03:35;;;;;;;21.90;17.53;;;1.30;99.90;;;2.05;78.16;95475.28;5238802;28;20223;-76
2020/12/04 02:06:14;;;;;;;23.33;18.27;;;1.30;99.90;;;2.01;78.12;95486.00;5245920;28;20199;-76
2020/12/04 02:08:53;;;;;;;23.33;17.70;;;1.30;99.90;;;2.07;78.06;95495.53;5239016;28;20689;-76
2020/12/04 02:11:26;;;;;;;22.30;17.23;;;1.30;99.90;;;2.04;78.58;95491.19;5226598;28;20201;-76
2020/12/04 02:13:59;;;;;;;21.10;17.17;;;1.30;99.90;;;2.07;78.17;95478.75;5235424;28;20601;-76
2020/12/04 02:16:33;;;;;;;22.07;17.50;;;1.30;99.90;;;2.11;78.10;95477.25;5233249;28;20196;-76
2020/12/04 02:19:06;;;;;;;19.53;16.70;;;1.40;99.90;;;2.11;77.42;95468.03;5228380;28;20557;-76
2020/12/04 02:21:39;;;;;;;20.77;17.13;;;1.40;99.90;;;2.06;77.37;95454.38;5231081;28;20225;-76
2020/12/04 02:24:12;;;;;;;22.17;16.90;;;1.40;99.90;;;1.98;78.64;95470.75;5226054;28;20713;-76
2020/12/04 02:26:46;;;;;;;19.93;16.37;;;1.30;99.90;;;1.91;78.42;95459.47;5231202;28;20197;-76
2020/12/04 02:29:18;;;;;;;20.33;16.70;;;1.20;99.90;;;1.99;79.34;95452.31;5238034;28;20223;-76
2020/12/04 02:31:50;;;;;;;20.63;16.77;;;1.20;99.90;;;1.99;78.75;95448.13;5235146;28;20201;-76
2020/12/04 02:34:22;;;;;;;22.00;17.80;;;1.30;99.90;;;1.98;78.54;95440.53;5239286;28;20226;-76
2020/12/04 02:36:55;;;;;;;20.40;16.40;;;1.30;99.90;;;1.99;79.40;95440.59;5244843;28;20203;-76
2020/12/04 02:39:27;;;;;;;20.53;17.23;;;1.20;99.90;;;2.08;78.05;95435.13;5244793;28;20209;-76
2020/12/04 02:42:00;;;;;;;23.53;17.93;;;1.20;99.90;;;1.98;78.40;95426.28;5237658;28;20223;-76
2020/12/04 02:44:33;;;;;;;19.53;17.43;;;1.20;99.90;;;1.90;79.36;95421.63;5241976;28;20202;-76
2020/12/04 02:47:05;;;;;;;20.77;17.80;;;1.10;99.90;;;1.85;79.54;95415.50;5240650;28;20204;-75
2020/12/04 02:49:38;;;;;;;23.10;17.90;;;1.00;99.90;;;1.73;80.29;95423.31;5238815;28;20329;-76
2020/12/04 02:52:10;;;;;;;22.70;18.43;;;1.00;99.90;;;1.80;80.23;95420.28;5267656;28;20289;-76
2020/12/04 02:54:43;;;;;;;22.43;17.43;;;1.00;99.90;;;1.98;79.15;95421.22;5256339;28;20714;-75
2020/12/04 02:57:15;;;;;;;24.03;18.47;;;1.10;99.90;;;2.16;78.08;95420.41;5240348;28;20205;-75
2020/12/04 02:59:47;;;;;;;26.07;17.67;;;1.20;99.90;;;1.76;79.25;95408.34;5250451;28;20574;-75
2020/12/04 03:02:19;;;;;;;20.90;16.93;;;1.00;99.90;;;1.63;80.25;95401.84;5242363;28;20223;-76
2020/12/04 03:04:51;;;;;;;23.90;18.30;;;1.00;99.90;;;1.62;80.92;95395.06;5245286;28;20203;-76
2020/12/04 03:07:24;;;;;;;23.67;17.63;;;1.00;99.90;;;1.69;81.58;95407.19;5248602;28;20575;-76
2020/12/04 03:09:56;;;;;;;23.53;18.63;;;1.00;99.90;;;1.72;81.38;95422.44;5249979;28;20225;-76
2020/12/04 03:12:28;;;;;;;24.97;18.37;;;1.00;99.90;;;1.81;81.67;95442.19;5243724;28;20227;-76
2020/12/04 03:15:01;;;;;;;22.47;17.60;;;1.10;99.90;;;1.76;80.76;95424.31;5247488;28;20578;-76
2020/12/04 03:17:33;;;;;;;22.60;17.67;;;1.00;99.90;;;1.79;79.84;95416.06;5248942;28;20202;-75
2020/12/04 03:20:06;;;;;;;21.23;16.90;;;1.00;99.90;;;1.68;80.40;95420.53;5240450;28;20207;-76
2020/12/04 03:22:39;;;;;;;22.33;17.33;;;1.00;99.90;;;1.62;81.15;95415.19;5247764;28;20695;-76
2020/12/04 03:25:12;;;;;;;23.03;17.47;;;1.00;99.90;;;1.68;81.55;95395.38;5248578;28;20195;-76
2020/12/04 03:27:44;;;;;;;21.00;16.60;;;0.90;99.90;;;1.74;81.12;95385.59;5244246;28;20210;-76
2020/12/04 03:30:16;;;;;;;23.03;17.87;;;1.00;99.90;;;1.67;81.19;95398.69;5249359;28;20285;-76
2020/12/04 03:32:48;;;;;;;22.07;18.50;;;1.00;99.90;;;1.67;80.50;95397.81;5239229;28;20233;-76
2020/12/04 03:35:20;;;;;;;21.47;17.43;;;1.00;99.90;;;1.81;80.53;95386.78;5236075;28;20207;-76
2020/12/04 03:37:53;;;;;;;22.17;17.60;;;1.00;99.90;;;1.83;79.83;95379.28;5245996;28;20206;-76
2020/12/04 03:40:25;;;;;;;22.17;17.57;;;1.10;99.90;;;1.76;80.23;95376.47;5247332;28;20198;-76
2020/12/04 03:42:57;;;;;;;21.90;17.80;;;1.00;99.90;;;1.73;80.94;95393.09;5243184;28;20225;-76
2020/12/04 03:45:30;;;;;;;21.77;17.30;;;1.00;99.90;;;1.75;81.44;95387.34;5246088;28;20213;-76
2020/12/04 03:48:03;;;;;;;22.03;17.37;;;1.00;99.90;;;2.04;80.11;95390.44;5247358;28;20203;-75
2020/12/04 03:50:35;;;;;;;21.83;17.20;;;1.10;99.90;;;1.87;80.17;95386.22;5245301;28;20193;-76
2020/12/04 03:53:08;;;;;;;21.17;17.87;;;1.10;99.90;;;1.80;80.95;95390.06;5242964;28;20216;-76
2020/12/04 03:55:40;;;;;;;22.40;18.00;;;1.10;99.90;;;1.74;81.50;95398.19;5249552;28;20296;-76
2020/12/04 03:58:12;;;;;;;22.13;17.20;;;1.00;99.90;;;1.74;81.34;95385.59;5245982;28;20299;-76
2020/12/04 04:00:44;;;;;;;20.17;15.80;;;1.00;99.90;;;1.65;82.12;95384.28;5246355;28;20604;-76
2020/12/04 04:03:16;;;;;;;18.80;15.47;;;1.00;99.90;;;1.70;81.86;95376.19;5242955;28;20258;-76
2020/12/04 04:05:49;;;;;;;18.23;15.70;;;1.00;99.90;;;1.74;82.10;95398.19;5246708;28;20206;-76
2020/12/04 04:08:21;;;;;;;18.53;15.77;;;1.00;99.90;;;1.77;82.00;95389.91;5244519;28;20200;-75
2020/12/04 04:10:54;;;;;;;20.33;16.10;;;1.10;99.90;;;1.87;82.17;95402.19;5248545;28;20205;-76
2020/12/04 04:13:26;;;;;;;21.07;17.17;;;1.10;99.90;;;1.89;81.97;95394.69;5243540;28;20703;-76
2020/12/04 04:15:58;;;;;;;22.47;17.73;;;1.10;99.90;;;1.86;81.51;95394.56;5249236;28;20591;-76
2020/12/04 04:18:30;;;;;;;22.87;17.63;;;1.10;99.90;;;1.86;81.29;95408.03;5240250;28;20201;-76
2020/12/04 04:21:07;;;;;;;19.83;16.60;;;1.10;99.90;;;1.91;81.29;95410.75;5246831;28;20216;-76
2020/12/04 04:23:40;;;;;;;19.87;16.17;;;1.10;99.90;;;1.98;81.17;95415.34;5244199;28;20228;-76
2020/12/04 04:26:13;;;;;;;22.30;17.27;;;1.20;99.90;;;2.01;81.14;95426.41;5246029;28;20599;-76
2020/12/04 04:28:45;;;;;;;21.20;17.63;;;1.30;99.90;;;2.05;81.84;95426.56;5243654;28;20231;-76
2020/12/04 04:31:17;;;;;;;21.63;17.70;;;1.30;99.90;;;1.94;81.18;95442.00;5244818;28;20207;-75
2020/12/04 04:33:49;;;;;;;20.60;17.07;;;1.20;99.90;;;1.99;80.83;95449.78;5238803;28;20232;-76
2020/12/04 04:36:21;;;;;;;20.40;16.07;;;1.20;99.90;;;2.04;80.49;95430.75;5245603;28;20710;-76
2020/12/04 04:38:54;;;;;;;21.20;17.87;;;1.30;99.90;;;2.05;80.49;95429.94;5242532;28;20211;-76
2020/12/04 04:41:26;;;;;;;20.97;17.77;;;1.20;99.90;;;2.05;81.10;95413.97;5242218;28;20499;-76
2020/12/04 04:43:58;;;;;;;21.30;16.30;;;1.30;99.90;;;2.06;81.00;95426.66;5242389;28;20647;-76
2020/12/04 04:46:39;;;;;;;20.70;16.57;;;1.30;99.90;;;2.06;81.17;95433.31;5246920;28;20232;-76
2020/12/04 04:49:26;;;;;;;19.83;16.37;;;1.30;99.90;;;2.00;81.94;95442.34;5242986;28;20657;-75
2020/12/04 04:51:59;;;;;;;19.43;15.97;;;1.30;99.90;;;2.08;81.28;95427.56;5247407;28;20621;-76
2020/12/04 04:54:36;;;;;;;21.03;17.30;;;1.30;99.90;;;2.18;79.73;95418.84;5239940;28;20383;-76
2020/12/04 04:57:09;;;;;;;20.70;16.33;;;1.30;99.90;;;2.07;81.30;95417.44;5240808;28;20207;-75
2020/12/04 04:59:42;;;;;;;20.00;16.27;;;1.30;99.90;;;2.04;80.82;95410.59;5241921;28;20227;-76
2020/12/04 05:02:15;;;;;;;19.27;16.10;;;1.20;99.90;;;2.01;81.11;95444.06;5238645;28;20534;-76
2020/12/04 05:04:49;;;;;;;19.37;15.43;;;1.20;99.90;;;2.05;81.30;95427.44;5242411;28;20196;-76
2020/12/04 05:07:29;;;;;;;19.57;15.83;;;1.20;99.90;;;2.19;80.87;95426.44;5249466;28;20197;-76
2020/12/04 05:10:14;;;;;;;19.17;16.90;;;1.30;99.90;;;2.03;80.40;95441.59;5245508;28;20682;-76
2020/12/04 05:13:01;;;;;;;22.20;16.23;;;1.30;99.90;;;1.86;81.11;95432.31;5238460;28;20315;-76
2020/12/04 05:15:33;;;;;;;21.47;16.80;;;1.20;99.90;;;1.96;80.84;95419.41;5231726;28;20204;-76
2020/12/04 05:18:10;;;;;;;24.83;19.63;;;1.20;99.90;;;1.90;81.19;95431.72;5244493;28;20290;-76
2020/12/04 05:20:49;;;;;;;40.13;23.27;;;1.20;99.90;;;2.05;81.15;95417.34;5243798;28;20212;-76
2020/12/04 05:23:22;;;;;;;24.37;18.77;;;1.20;99.90;;;2.07;80.46;95430.91;5241635;28;20250;-75
2020/12/04 05:25:57;;;;;;;31.80;21.70;;;1.20;99.90;;;1.97;81.02;95433.72;5227107;28;20567;-76
2020/12/04 05:28:30;;;;;;;21.27;16.67;;;1.20;99.90;;;1.94;80.98;95410.91;5227763;28;20202;-76
2020/12/04 05:31:09;;;;;;;21.23;17.40;;;1.30;99.90;;;2.12;79.88;95394.22;5229695;28;20202;-75
2020/12/04 05:33:44;;;;;;;18.30;16.27;;;1.30;99.90;;;2.05;80.57;95387.13;5236086;28;20251;-76
2020/12/04 05:36:28;;;;;;;22.00;17.23;;;1.40;99.90;;;2.00;81.05;95421.28;5243749;28;20203;-76
2020/12/04 05:39:00;;;;;;;21.60;17.17;;;1.40;99.90;;;2.01;81.09;95443.19;5240740;28;20710;-76
2020/12/04 05:41:46;;;;;;;21.03;16.87;;;1.40;99.90;;;2.07;80.93;95417.44;5240323;28;20581;-76
2020/12/04 05:44:18;;;;;;;20.73;15.97;;;1.40;99.90;;;2.13;79.86;95432.84;5242656;28;20229;-76
2020/12/04 05:46:54;;;;;;;22.40;16.50;;;1.40;99.90;;;1.95;80.22;95435.34;5234052;28;20338;-75
2020/12/04 05:49:40;;;;;;;22.77;16.87;;;1.40;99.90;;;1.99;80.55;95437.19;5226517;28;20207;-76
2020/12/04 05:52:14;;;;;;;19.93;16.93;;;1.40;99.90;;;2.02;80.62;95417.19;5240281;28;20202;-75
2020/12/04 05:54:47;;;;;;;18.27;15.77;;;1.40;99.90;;;2.09;79.45;95409.19;5245430;28;20207;-75
2020/12/04 05:57:21;;;;;;;20.47;17.03;;;1.40;99.90;;;2.07;79.35;95408.22;5237969;28;21908;-75
2020/12/04 05:59:53;;;;;;;21.83;17.00;;;1.40;99.90;;;1.99;79.79;95402.78;5241772;28;20201;-76
2020/12/04 06:02:25;;;;;;;22.67;17.23;;;1.40;99.90;;;2.04;80.19;95395.47;5233742;28;20221;-76
2020/12/04 06:05:00;;;;;;;20.53;16.17;;;1.40;99.90;;;2.10;79.99;95388.22;5244791;28;20560;-76
2020/12/04 06:07:32;;;;;;;21.27;17.43;;;1.50;99.90;;;2.14;80.59;95376.63;5240363;28;20195;-75
2020/12/04 06:10:04;;;;;;;19.70;16.00;;;1.50;99.90;;;2.18;79.70;95376.88;5245047;28;20226;-77
2020/12/04 06:12:37;;;;;;;17.77;15.67;;;1.50;99.90;;;2.20;80.02;95381.97;5242226;28;20751;-74
2020/12/04 06:15:27;;;;;;;21.83;16.50;;;1.50;99.90;;;2.23;80.97;95387.16;5224950;28;20201;-75
2020/12/04 06:18:05;;;;;;;21.63;16.10;;;1.50;99.90;;;2.24;79.93;95363.69;5231711;28;20316;-75
2020/12/04 06:20:43;;;;;;;18.50;15.77;;;1.50;99.90;;;2.35;78.61;95365.06;5230923;28;20294;-76
2020/12/04 06:23:16;;;;;;;19.87;16.23;;;1.60;99.90;;;2.36;79.50;95373.50;5243846;28;20224;-75
2020/12/04 06:26:07;;;;;;;19.43;16.10;;;1.60;99.90;;;2.29;79.43;95374.88;5244529;28;20222;-75
2020/12/04 06:28:41;;;;;;;21.90;16.67;;;1.60;99.90;;;2.37;79.03;95363.47;5241592;28;20320;-76
2020/12/04 06:31:14;;;;;;;18.50;16.50;;;1.60;99.90;;;2.44;78.35;95368.03;5241282;28;20301;-76
2020/12/04 06:33:48;;;;;;;18.00;15.97;;;1.70;99.90;;;2.40;78.87;95380.41;5239057;28;20338;-75
2020/12/04 06:36:36;;;;;;;21.77;16.93;;;1.60;99.90;;;2.39;79.23;95389.63;5236017;28;20199;-74
2020/12/04 06:39:29;;;;;;;22.57;16.50;;;1.60;99.90;;;2.53;78.32;95376.81;5240042;28;20205;-76
2020/12/04 06:42:01;;;;;;;20.23;16.00;;;1.70;99.90;;;2.36;78.09;95363.41;5240419;28;20217;-75
2020/12/04 06:44:34;;;;;;;18.30;15.83;;;1.70;99.90;;;2.32;79.54;95371.59;5224707;28;20211;-75
2020/12/04 06:47:15;;;;;;;18.83;15.63;;;1.60;99.90;;;2.34;78.89;95365.00;5241832;28;20206;-75
2020/12/04 06:49:47;;;;;;;20.03;15.53;;;1.60;99.90;;;2.41;79.59;95341.81;5242369;28;20196;-75
2020/12/04 06:52:20;;;;;;;20.00;16.20;;;1.60;99.90;;;2.38;79.33;95339.16;5241940;28;20193;-75
2020/12/04 06:54:52;;;;;;;19.47;16.20;;;1.70;99.90;;;2.38;79.65;95361.84;5241756;28;20293;-76
2020/12/04 06:57:25;;;;;;;19.10;15.47;;;1.70;99.90;;;2.40;79.77;95385.44;5238631;28;20582;-75
2020/12/04 06:59:58;;;;;;;19.40;16.33;;;1.60;99.90;;;2.28;80.09;95365.56;5237896;28;20206;-75
2020/12/04 07:02:30;;;;;;;21.07;17.47;;;1.60;99.90;;;2.30;80.52;95385.81;5235106;28;20231;-75
2020/12/04 07:05:02;;;;;;;19.70;16.47;;;1.50;99.90;;;2.29;80.98;95371.47;5233459;28;20667;-76
2020/12/04 07:07:34;;;;;;;20.33;16.93;;;1.60;99.90;;;2.28;80.50;95364.69;5250806;28;20291;-76
2020/12/04 07:10:06;;;;;;;21.30;16.93;;;1.60;99.90;;;2.29;79.79;95356.34;5242668;28;20212;-76
2020/12/04 07:12:39;;;;;;;21.07;17.57;;;1.60;99.90;;;2.37;79.69;95371.03;5239779;28;20767;-76
2020/12/04 07:15:15;;;;;;;19.87;17.73;;;1.60;99.90;;;2.49;79.10;95373.28;5241844;28;20290;-76
2020/12/04 07:17:49;;;;;;;22.63;18.20;;;1.70;99.90;;;2.40;79.16;95363.63;5229006;28;20216;-76
2020/12/04 07:20:21;;;;;;;22.23;17.73;;;1.70;99.90;;;2.49;79.86;95363.22;5225193;28;20232;-76
2020/12/04 07:22:53;;;;;;;19.73;16.33;;;1.70;99.90;;;2.42;79.44;95357.00;5226412;28;20223;-76
2020/12/04 07:25:26;;;;;;;18.43;15.93;;;1.60;99.90;;;2.41;79.38;95356.94;5242222;28;20215;-76
2020/12/04 07:27:58;;;;;;;17.93;15.47;;;1.60;99.90;;;2.51;78.99;95361.59;5242220;28;20656;-76
2020/12/04 07:30:31;;;;;;;21.33;16.70;;;1.70;99.90;;;2.49;78.64;95355.66;5233124;28;20212;-76
2020/12/04 07:33:03;;;;;;;21.40;17.00;;;1.70;99.90;;;2.35;79.31;95361.69;5241068;28;20222;-76
2020/12/04 07:35:35;;;;;;;19.33;16.53;;;1.70;99.90;;;2.33;78.52;95365.78;5227683;28;20206;-76
2020/12/04 07:38:07;;;;;;;19.63;15.70;;;1.70;99.90;;;2.38;79.43;95362.69;5238854;28;20209;-76
2020/12/04 07:40:40;;;;;;;21.03;16.80;;;1.70;99.90;;;2.40;78.88;95361.09;5245581;28;20685;-76
2020/12/04 07:43:12;;;;;;;19.43;15.83;;;1.70;99.90;;;2.46;79.72;95365.56;5235661;28;20239;-76
2020/12/04 07:45:45;;;;;;;18.50;15.43;;;1.80;99.90;;;2.50;79.37;95359.88;5239024;28;20647;-76
2020/12/04 07:48:18;;;;;;;31.17;23.43;;;1.80;99.90;;;2.63;78.19;95358.78;5243636;28;20768;-76
2020/12/04 07:50:50;;;;;;;25.00;20.47;;;1.80;99.90;;;2.55;78.38;95350.00;5243064;28;20297;-77
2020/12/04 07:53:23;;;;;;;21.93;18.50;;;1.80;99.90;;;2.58;79.86;95366.16;5245486;28;20227;-75
2020/12/04 07:55:59;;;;;;;20.57;17.07;;;1.80;99.90;;;2.55;80.50;95387.81;5235901;28;20293;-77
2020/12/04 07:58:31;;;;;;;17.73;15.87;;;1.80;99.90;;;2.53;80.07;95367.59;5239466;28;20214;-76
2020/12/04 08:01:04;;;;;;;19.63;16.73;;;1.80;99.90;;;2.61;80.39;95360.41;5239142;28;20208;-77
2020/12/04 08:03:37;;;;;;;20.83;16.93;;;1.80;99.90;;;2.54;80.94;95353.31;5246406;28;20299;-76
2020/12/04 08:06:09;;;;;;;20.33;16.67;;;1.80;99.90;;;2.61;80.85;95350.31;5228474;28;20205;-76
2020/12/04 08:08:42;;;;;;;17.73;15.83;;;1.80;99.90;;;2.70;79.51;95351.59;5225862;28;20201;-76
2020/12/04 08:11:17;;;;;;;20.97;17.80;;;1.90;99.90;;;2.73;79.93;95350.88;5239397;28;20235;-77
2020/12/04 08:13:50;;;;;;;21.60;18.20;;;1.90;99.90;;;2.73;79.60;95345.81;5234147;28;20230;-76
2020/12/04 08:16:25;;;;;;;21.60;18.00;;;1.90;99.90;;;2.74;79.47;95347.53;5241167;28;20305;-76
2020/12/04 08:19:08;;;;;;;21.87;16.87;;;1.90;99.90;;;2.78;80.27;95363.69;5245001;28;20197;-76
2020/12/04 08:21:56;;;;;;;18.13;16.23;;;1.90;99.90;;;2.73;79.99;95344.97;5244668;28;20589;-76
2020/12/04 08:24:31;;;;;;;19.33;15.83;;;1.90;99.90;;;2.80;79.33;95354.53;5241031;28;20440;-77
2020/12/04 08:27:10;;;;;;;19.40;16.03;;;1.90;99.90;;;2.81;80.22;95351.22;5245367;28;20250;-76
2020/12/04 08:29:46;;;;;;;22.43;16.43;;;1.90;99.90;;;2.84;80.04;95334.56;5241114;28;20655;-76
2020/12/04 08:32:22;;;;;;;21.63;17.67;;;2.00;99.90;;;2.91;79.86;95325.59;5238462;28;20194;-76
2020/12/04 08:35:08;;;;;;;21.03;16.10;;;2.00;99.90;;;2.95;80.11;95307.31;5244606;28;20199;-76
2020/12/04 08:37:41;;;;;;;28.50;19.53;;;2.10;99.90;;;3.00;79.54;95308.34;5242984;28;20211;-76
2020/12/04 08:40:26;;;;;;;23.17;19.30;;;2.10;99.90;;;3.06;79.95;95301.06;5236413;28;20204;-76
2020/12/04 08:43:10;;;;;;;20.17;16.63;;;2.20;99.90;;;3.27;78.09;95301.13;5233554;28;20651;-76
2020/12/04 08:45:44;;;;;;;23.47;17.77;;;2.30;99.90;;;3.17;78.26;95289.75;5243439;28;20204;-76
2020/12/04 08:48:20;;;;;;;19.57;16.47;;;2.30;99.90;;;3.38;77.64;95299.06;5233943;28;20687;-76
2020/12/04 08:50:54;;;;;;;20.23;17.30;;;2.40;99.90;;;2.99;79.40;95294.00;5243611;28;20211;-77
2020/12/04 08:53:27;;;;;;;19.60;16.80;;;2.30;99.90;;;2.93;79.62;95279.47;5232355;28;20304;-76
2020/12/04 08:56:04;;;;;;;20.20;15.87;;;2.20;99.90;;;2.93;79.93;95288.72;5229235;28;20203;-76
2020/12/04 08:58:37;;;;;;;20.40;17.03;;;2.10;99.90;;;3.05;78.98;95276.63;5229450;28;20204;-76
2020/12/04 09:01:09;;;;;;;22.23;17.97;;;2.20;99.90;;;2.91;79.26;95285.25;5230095;28;20283;-76
2020/12/04 09:04:00;;;;;;;21.87;18.27;;;2.20;99.90;;;2.73;80.67;95282.78;5232820;28;20309;-76
2020/12/04 09:06:32;;;;;;;24.70;18.77;;;2.20;99.90;;;2.93;79.81;95271.03;5240466;28;20302;-76
2020/12/04 09:09:04;;;;;;;21.90;17.43;;;2.30;99.90;;;2.82;79.42;95277.28;5228243;28;20204;-76
2020/12/04 09:11:36;;;;;;;24.53;18.23;;;2.20;99.90;;;2.91;80.76;95301.25;5226245;28;20681;-76
2020/12/04 09:14:08;;;;;;;27.43;20.93;;;2.20;99.90;;;3.04;79.33;95330.41;5233322;28;20221;-76
2020/12/04 09:16:41;;;;;;;22.73;18.43;;;2.40;99.90;;;3.19;79.97;95347.03;5235772;28;20291;-76
2020/12/04 09:19:14;;;;;;;20.10;17.63;;;2.50;99.90;;;3.32;78.23;95324.03;5236640;28;20232;-76
2020/12/04 09:21:46;;;;;;;19.77;17.20;;;2.60;99.90;;;3.49;77.16;95332.34;5240661;28;20366;-76
2020/12/04 09:24:18;;;;;;;22.17;18.30;;;2.80;99.90;;;3.49;77.80;95323.13;5241879;28;20234;-75
2020/12/04 09:26:50;;;;;;;21.67;18.07;;;2.80;99.90;;;3.61;77.43;95323.63;5240129;28;20292;-76
2020/12/04 09:29:22;;;;;;;22.37;19.10;;;2.90;99.90;;;3.59;76.88;95320.16;5238928;28;20203;-75
2020/12/04 09:31:54;;;;;;;21.67;18.87;;;2.90;99.90;;;3.67;77.24;95322.16;5240110;28;20236;-76
2020/12/04 09:34:27;;;;;;;20.83;18.00;;;3.00;99.90;;;3.75;77.23;95318.28;5239140;28;20223;-76
2020/12/04 09:37:15;;;;;;;21.70;17.53;;;3.00;99.90;;;3.87;76.25;95305.31;5243500;28;20219;-76
2020/12/04 09:39:50;;;;;;;22.43;17.47;;;3.10;99.90;;;3.92;75.60;95299.66;5239767;28;20190;-76
2020/12/04 09:42:24;;;;;;;20.50;17.27;;;3.10;99.90;;;4.15;75.84;95308.16;5235193;28;20262;-76
2020/12/04 09:44:56;;;;;;;22.60;18.07;;;3.30;99.90;;;4.49;72.77;95289.22;5233940;28;20218;-76
2020/12/04 09:47:32;;;;;;;21.93;18.57;;;3.60;99.90;;;4.51;73.62;95282.56;5243117;28;20285;-76
2020/12/04 09:50:09;;;;;;;22.60;18.17;;;3.70;99.90;;;4.69;72.20;95283.28;5237322;28;20604;-76
2020/12/04 09:52:42;;;;;;;22.23;17.07;;;3.80;99.90;;;4.65;71.94;95280.56;5230857;28;20759;-76
2020/12/04 09:55:14;;;;;;;21.97;18.73;;;3.70;99.90;;;4.63;72.13;95277.09;5241291;28;20203;-76
2020/12/04 09:57:48;;;;;;;19.97;17.37;;;3.80;99.90;;;4.59;72.48;95290.44;5241598;28;20203;-76
2020/12/04 10:00:20;;;;;;;22.07;18.60;;;3.70;99.90;;;4.69;72.40;95273.16;5239288;28;20219;-76
2020/12/04 10:02:52;;;;;;;20.13;17.47;;;3.80;99.90;;;4.66;72.29;95277.22;5240683;28;20236;-75
2020/12/04 10:05:25;;;;;;;19.87;17.47;;;3.70;99.90;;;4.74;72.33;95291.00;5239317;28;20215;-75
2020/12/04 10:07:57;;;;;;;20.00;17.87;;;3.80;99.90;;;4.73;72.76;95302.81;5240072;28;20210;-76
2020/12/04 10:10:29;;;;;;;19.23;17.13;;;3.80;99.90;;;4.73;72.37;95296.88;5240906;28;20659;-75
2020/12/04 10:13:01;;;;;;;20.70;17.37;;;3.80;99.90;;;4.76;72.05;95273.38;5236797;28;20224;-75
2020/12/04 10:15:33;;;;;;;19.00;16.60;;;3.90;99.90;;;4.72;72.46;95268.19;5237280;28;20200;-75
2020/12/04 10:18:07;;;;;;;16.67;14.87;;;3.90;99.90;;;4.79;72.67;95264.22;5235688;28;20660;-75
2020/12/04 10:20:41;;;;;;;17.80;15.43;;;3.90;99.90;;;4.90;72.63;95255.34;5242934;28;20202;-75
2020/12/04 10:23:13;;;;;;;18.90;16.37;;;4.00;99.90;;;4.92;72.28;95263.88;5253927;22;20285;-72
2020/12/04 10:25:45;;;;;;;20.97;16.70;;;4.00;99.90;;;5.16;71.15;95268.09;5251973;28;20214;-73
2020/12/04 10:28:17;;;;;;;18.37;16.43;;;4.10;99.90;;;4.94;71.01;95259.69;5245704;28;20222;-72
2020/12/04 10:30:49;;;;;;;17.90;16.00;;;4.00;99.90;;;4.91;71.39;95254.53;5243808;28;20282;-73
2020/12/04 10:33:21;;;;;;;20.10;17.73;;;3.90;99.90;;;4.87;70.82;95244.25;5243425;28;20220;-74
2020/12/04 10:35:54;;;;;;;21.13;17.87;;;3.80;99.90;;;4.75;71.58;95252.28;5241686;28;20672;-72
2020/12/04 10:38:26;;;;;;;21.73;18.10;;;3.70;99.90;;;4.58;72.51;95253.28;5279061;22;20682;-83
2020/12/04 10:40:58;;;;;;;21.20;17.27;;;3.60;99.90;;;4.57;72.94;95249.03;5249976;28;20197;-81
2020/12/04 10:43:30;;;;;;;20.50;17.43;;;3.70;99.90;;;4.53;73.06;95260.72;5248099;28;20735;-84
2020/12/04 10:46:03;;;;;;;18.57;16.50;;;3.60;99.90;;;4.38;73.93;95255.94;5248015;28;20291;-81
2020/12/04 10:48:35;;;;;;;19.07;16.63;;;3.60;99.90;;;4.37;73.97;95266.84;5247655;28;20222;-82